Time;durP1;ratioP1;P1;durP2;ratioP2;P2;SDS_P1;SDS_P2;PMS_P1;PMS_P2;Temp;Humidity;BMP_temperature;BMP_pressure;BME280_temperature;BME280_humidity;BME280_pressure;Samples;Min_cycle;Max_cycle;Signal;HPM_P1;HPM_P2
2023/06/30 00:02:23;;;;;;;5.28;4.78;;;21.20;99.90;;;;;;4984107;28;20216;-39
2023/06/30 00:04:49;;;;;;;6.60;4.63;;;21.30;99.90;;;;;;4988208;28;20295;-41
2023/06/30 00:07:20;;;;;;;7.88;4.50;;;21.30;99.90;;;;;;4969911;28;20254;-37
2023/06/30 00:09:47;;;;;;;6.30;4.80;;;21.30;99.90;;;;;;4971953;28;20188;-36
2023/06/30 00:12:13;;;;;;;6.40;4.97;;;21.40;99.90;;;;;;4969935;28;20183;-40
2023/06/30 00:14:39;;;;;;;6.40;4.75;;;21.40;99.90;;;;;;4972068;28;20185;-38
2023/06/30 00:17:05;;;;;;;5.53;4.70;;;21.30;99.90;;;;;;4973777;28;20310;-36
2023/06/30 00:19:31;;;;;;;5.00;4.50;;;21.30;99.90;;;;;;4992705;28;20198;-39
2023/06/30 00:21:57;;;;;;;4.88;4.40;;;21.30;99.90;;;;;;4971706;28;20189;-34
2023/06/30 00:24:23;;;;;;;8.05;4.53;;;21.40;99.90;;;;;;4970725;28;20195;-38
2023/06/30 00:26:50;;;;;;;7.50;4.85;;;21.40;99.90;;;;;;4987735;28;20200;-41
2023/06/30 00:29:16;;;;;;;6.18;4.65;;;21.40;99.90;;;;;;4983088;28;20188;-37
2023/06/30 00:31:42;;;;;;;4.85;4.45;;;21.40;99.90;;;;;;4980725;28;20403;-37
2023/06/30 00:34:07;;;;;;;6.05;5.00;;;21.40;99.90;;;;;;4969128;28;20180;-39
2023/06/30 00:36:33;;;;;;;6.90;5.22;;;21.40;99.90;;;;;;4973170;28;20191;-39
2023/06/30 00:38:59;;;;;;;8.25;5.10;;;21.30;99.90;;;;;;4968042;28;20203;-36
2023/06/30 00:41:25;;;;;;;5.45;4.30;;;21.30;99.90;;;;;;4974616;28;20191;-35
2023/06/30 00:43:51;;;;;;;6.45;4.63;;;21.30;99.90;;;;;;4987142;28;20271;-39
2023/06/30 00:46:17;;;;;;;5.70;5.10;;;21.20;99.90;;;;;;4970049;28;20207;-35
2023/06/30 00:48:44;;;;;;;5.68;5.05;;;21.20;99.90;;;;;;5006272;28;20199;-39
2023/06/30 00:51:12;;;;;;;5.53;4.50;;;21.10;99.90;;;;;;4973890;28;20194;-37
2023/06/30 00:53:38;;;;;;;5.40;4.90;;;21.00;99.90;;;;;;4972091;28;20267;-36
2023/06/30 00:56:04;;;;;;;6.72;4.90;;;21.00;99.90;;;;;;4980392;28;20192;-39
2023/06/30 00:58:31;;;;;;;7.20;5.07;;;20.90;99.90;;;;;;4988359;28;20286;-37
2023/06/30 01:01:18;;;;;;;7.25;4.90;;;20.80;99.90;;;;;;4967051;28;20183;-38
2023/06/30 01:04:08;;;;;;;5.38;4.88;;;20.70;99.90;;;;;;4971091;28;20187;-39
2023/06/30 01:06:40;;;;;;;6.05;5.28;;;20.60;99.90;;;;;;4970481;28;20207;-38
2023/06/30 01:09:19;;;;;;;6.40;5.03;;;20.60;99.90;;;;;;4968030;28;20211;-39
2023/06/30 01:11:46;;;;;;;7.05;5.20;;;20.50;99.90;;;;;;4971921;28;20249;-38
2023/06/30 01:14:14;;;;;;;7.60;5.30;;;20.40;99.90;;;;;;4993606;28;20252;-38
2023/06/30 01:16:42;;;;;;;7.45;5.63;;;20.40;99.90;;;;;;4991625;28;20241;-37
2023/06/30 01:19:25;;;;;;;8.02;5.07;;;20.30;99.90;;;;;;4992783;28;20190;-37
2023/06/30 01:21:55;;;;;;;6.60;4.72;;;20.30;99.90;;;;;;4974053;28;20188;-35
2023/06/30 01:24:27;;;;;;;8.05;5.13;;;20.30;99.90;;;;;;4974709;28;20224;-38
2023/06/30 01:26:53;;;;;;;5.68;5.15;;;20.30;99.90;;;;;;4973668;28;20203;-39
2023/06/30 01:29:19;;;;;;;5.82;4.93;;;20.30;99.90;;;;;;4974236;28;20184;-39
2023/06/30 01:31:45;;;;;;;5.35;4.68;;;20.20;99.90;;;;;;4981475;28;20657;-36
2023/06/30 01:34:11;;;;;;;5.28;4.78;;;20.20;99.90;;;;;;4973786;28;20184;-38
2023/06/30 01:36:37;;;;;;;5.28;4.78;;;20.20;99.90;;;;;;4973082;28;20191;-38
2023/06/30 01:39:03;;;;;;;6.20;5.00;;;20.20;99.90;;;;;;4972427;28;20199;-41
2023/06/30 01:41:29;;;;;;;5.43;4.93;;;20.20;99.90;;;;;;4972711;28;20231;-36
2023/06/30 01:43:55;;;;;;;6.88;5.45;;;20.20;99.90;;;;;;4973742;28;20184;-37
2023/06/30 01:46:21;;;;;;;6.20;5.22;;;20.10;99.90;;;;;;4973291;28;20204;-36
2023/06/30 01:48:49;;;;;;;7.53;5.05;;;20.10;99.90;;;;;;4992248;28;20249;-38
2023/06/30 01:51:16;;;;;;;6.32;5.50;;;20.00;99.90;;;;;;4990087;28;20215;-40
2023/06/30 01:53:43;;;;;;;6.45;5.40;;;20.00;99.90;;;;;;4971555;28;20279;-38
2023/06/30 01:56:11;;;;;;;8.50;5.65;;;20.00;99.90;;;;;;4968389;28;20187;-37
2023/06/30 01:58:37;;;;;;;6.22;5.20;;;19.90;99.90;;;;;;4972194;28;20207;-39
2023/06/30 02:01:02;;;;;;;7.13;5.72;;;19.90;99.90;;;;;;4979955;28;20196;-38
2023/06/30 02:03:29;;;;;;;7.32;5.65;;;19.80;99.90;;;;;;4989158;28;20245;-39
2023/06/30 02:05:55;;;;;;;5.50;4.97;;;19.70;99.90;;;;;;4969741;28;20298;-37
2023/06/30 02:08:21;;;;;;;5.95;5.18;;;19.80;99.90;;;;;;4986278;28;20284;-37
2023/06/30 02:10:48;;;;;;;6.18;5.53;;;19.80;99.90;;;;;;4984265;28;20172;-36
2023/06/30 02:13:16;;;;;;;6.32;5.38;;;19.80;99.90;;;;;;5009880;28;20184;-40
2023/06/30 02:15:42;;;;;;;5.70;5.10;;;19.90;99.90;;;;;;4976415;28;20190;-41
2023/06/30 02:18:07;;;;;;;5.90;5.00;;;19.90;99.90;;;;;;5010604;28;20231;-36
2023/06/30 02:20:34;;;;;;;5.95;5.35;;;19.90;99.90;;;;;;5008270;28;20195;-40
2023/06/30 02:23:02;;;;;;;6.43;4.82;;;19.90;99.90;;;;;;4990374;28;20196;-35
2023/06/30 02:25:27;;;;;;;8.95;5.25;;;19.90;99.90;;;;;;4989512;28;20243;-38
2023/06/30 02:27:53;;;;;;;5.65;5.05;;;19.90;99.90;;;;;;4984908;28;20242;-39
2023/06/30 02:30:19;;;;;;;7.00;5.15;;;19.80;99.90;;;;;;4976998;28;20211;-33
2023/06/30 02:32:45;;;;;;;6.22;5.55;;;19.80;99.90;;;;;;4972054;28;20216;-36
2023/06/30 02:35:12;;;;;;;6.72;5.25;;;19.70;99.90;;;;;;4971242;28;20184;-37
2023/06/30 02:37:38;;;;;;;7.38;5.53;;;19.50;99.90;;;;;;4975810;28;20219;-36
2023/06/30 02:40:05;;;;;;;6.25;5.25;;;19.50;99.90;;;;;;4976415;28;20760;-37
2023/06/30 02:42:31;;;;;;;5.78;5.28;;;19.40;99.90;;;;;;4976151;28;20191;-36
2023/06/30 02:44:57;;;;;;;7.22;5.30;;;19.40;99.90;;;;;;4976822;28;20218;-33
2023/06/30 02:47:23;;;;;;;5.55;5.05;;;19.30;99.90;;;;;;4976634;28;20199;-39
2023/06/30 02:49:49;;;;;;;6.63;5.07;;;19.20;99.90;;;;;;5007819;28;20191;-36
2023/06/30 02:52:17;;;;;;;5.45;4.95;;;19.20;99.90;;;;;;4976800;28;20249;-38
2023/06/30 02:54:43;;;;;;;5.57;5.07;;;19.20;99.90;;;;;;4974502;28;20187;-36
2023/06/30 02:57:09;;;;;;;6.00;5.40;;;19.20;99.90;;;;;;4970321;28;20208;-38
2023/06/30 02:59:35;;;;;;;8.90;5.43;;;19.20;99.90;;;;;;4967628;28;20188;-36
2023/06/30 03:02:02;;;;;;;7.57;5.50;;;19.20;99.90;;;;;;4976679;28;20192;-40
2023/06/30 03:04:29;;;;;;;6.07;5.47;;;19.20;99.90;;;;;;4976350;28;20176;-37
2023/06/30 03:06:55;;;;;;;8.30;5.85;;;19.30;99.90;;;;;;4975271;28;20207;-38
2023/06/30 03:09:21;;;;;;;6.43;5.72;;;19.40;99.90;;;;;;4975370;28;20338;-39
2023/06/30 03:11:47;;;;;;;7.32;5.60;;;19.40;99.90;;;;;;4973567;28;20267;-33
2023/06/30 03:14:14;;;;;;;5.93;5.40;;;19.40;99.90;;;;;;4969981;28;20239;-41
2023/06/30 03:16:42;;;;;;;6.25;5.65;;;19.50;99.90;;;;;;4975205;28;20204;-38
2023/06/30 03:19:08;;;;;;;5.93;5.43;;;19.60;99.90;;;;;;4989257;28;20184;-37
2023/06/30 03:21:35;;;;;;;8.18;5.80;;;19.60;99.90;;;;;;4977826;28;20242;-37
2023/06/30 03:24:01;;;;;;;5.90;5.30;;;19.60;99.90;;;;;;4968881;28;20188;-34
2023/06/30 03:26:28;;;;;;;6.38;5.78;;;19.60;99.90;;;;;;4959861;28;20218;-34
2023/06/30 03:28:54;;;;;;;5.88;5.28;;;19.60;99.90;;;;;;4972189;28;20183;-36
2023/06/30 03:31:20;;;;;;;5.90;5.30;;;19.60;99.90;;;;;;4980648;28;20189;-38
2023/06/30 03:33:47;;;;;;;6.72;5.93;;;19.60;99.90;;;;;;4973532;28;20176;-38
2023/06/30 03:36:16;;;;;;;7.28;5.60;;;19.60;99.90;;;;;;4973895;28;20203;-38
2023/06/30 03:38:42;;;;;;;7.25;5.55;;;19.50;99.90;;;;;;4949442;28;20239;-37
2023/06/30 03:41:08;;;;;;;6.25;5.65;;;19.50;99.90;;;;;;4969597;28;20184;-38
2023/06/30 03:43:34;;;;;;;7.60;5.90;;;19.50;99.90;;;;;;4974807;28;20184;-38
2023/06/30 03:46:02;;;;;;;6.70;6.00;;;19.50;99.90;;;;;;4968125;28;20296;-38
2023/06/30 03:48:28;;;;;;;6.95;6.22;;;19.50;99.90;;;;;;4996049;28;20272;-36
2023/06/30 03:50:54;;;;;;;6.80;5.95;;;19.50;99.90;;;;;;5014907;28;20180;-40
2023/06/30 03:53:21;;;;;;;6.43;5.82;;;19.50;99.90;;;;;;4975848;28;20180;-37
2023/06/30 03:55:47;;;;;;;7.32;6.53;;;19.50;99.90;;;;;;4974681;28;20180;-37
2023/06/30 03:58:14;;;;;;;8.88;6.72;;;19.60;99.90;;;;;;4975501;28;20208;-36
2023/06/30 04:00:40;;;;;;;7.25;6.55;;;19.60;99.90;;;;;;4973375;28;20184;-35
2023/06/30 04:03:05;;;;;;;8.27;6.18;;;19.70;99.90;;;;;;4972704;28;20202;-34
2023/06/30 04:05:31;;;;;;;6.28;5.68;;;19.70;99.90;;;;;;4998394;28;20204;-37
2023/06/30 04:07:57;;;;;;;6.90;6.30;;;19.70;99.90;;;;;;4989939;28;20203;-35
2023/06/30 04:10:24;;;;;;;7.72;6.32;;;19.70;99.90;;;;;;4984949;28;20235;-37
2023/06/30 04:12:50;;;;;;;10.20;6.50;;;19.70;99.90;;;;;;4974860;28;20192;-37
2023/06/30 04:15:24;;;;;;;8.07;6.40;;;19.80;99.90;;;;;;5001484;28;20183;-39
2023/06/30 04:17:56;;;;;;;8.63;6.60;;;19.80;99.90;;;;;;5003346;28;20691;-36
2023/06/30 04:20:23;;;;;;;6.90;6.20;;;19.70;99.90;;;;;;4980399;28;20198;-37
2023/06/30 04:22:49;;;;;;;7.63;6.35;;;19.70;99.90;;;;;;4990145;28;20189;-38
2023/06/30 04:25:18;;;;;;;9.80;6.88;;;19.70;99.90;;;;;;4986464;28;20258;-40
2023/06/30 04:27:44;;;;;;;10.40;7.03;;;19.70;99.90;;;;;;4973186;28;20196;-41
2023/06/30 04:30:12;;;;;;;11.25;7.32;;;19.70;99.90;;;;;;4976551;28;20183;-41
2023/06/30 04:32:38;;;;;;;9.93;7.65;;;19.60;99.90;;;;;;4975095;28;20199;-40
2023/06/30 04:35:07;;;;;;;10.48;7.70;;;19.60;99.90;;;;;;4975936;28;20196;-42
2023/06/30 04:37:40;;;;;;;9.32;7.88;;;19.50;99.90;;;;;;4992586;28;20279;-41
2023/06/30 04:40:10;;;;;;;13.00;7.68;;;19.50;99.90;;;;;;4972642;28;20185;-42
2023/06/30 04:42:36;;;;;;;9.43;7.60;;;19.40;99.90;;;;;;4996929;28;20200;-40
2023/06/30 04:45:05;;;;;;;15.25;9.02;;;19.30;99.90;;;;;;4965869;28;20212;-41
2023/06/30 04:47:30;;;;;;;10.45;8.57;;;19.30;99.90;;;;;;4979468;28;20208;-43
2023/06/30 04:49:56;;;;;;;16.60;9.93;;;19.20;99.90;;;;;;4989028;28;20172;-42
2023/06/30 04:52:22;;;;;;;11.82;9.40;;;19.10;99.90;;;;;;4985073;28;20206;-42
2023/06/30 04:54:48;;;;;;;14.45;10.35;;;19.10;99.90;;;;;;4991136;28;20176;-41
2023/06/30 04:57:14;;;;;;;12.27;9.73;;;19.10;99.90;;;;;;4976154;28;20268;-42
2023/06/30 04:59:40;;;;;;;12.00;9.98;;;19.10;99.90;;;;;;4974088;28;20263;-42
2023/06/30 05:02:06;;;;;;;13.93;9.82;;;19.10;99.90;;;;;;4970366;28;20188;-42
2023/06/30 05:04:32;;;;;;;13.95;9.75;;;19.10;99.90;;;;;;4970126;28;20176;-41
2023/06/30 05:06:58;;;;;;;14.20;9.80;;;19.20;99.90;;;;;;4972264;28;20223;-40
2023/06/30 05:09:25;;;;;;;13.10;9.25;;;19.20;99.90;;;;;;4986842;28;20172;-43
2023/06/30 05:11:51;;;;;;;14.95;10.27;;;19.20;99.90;;;;;;4968301;28;20263;-42
2023/06/30 05:14:20;;;;;;;13.27;10.82;;;19.10;99.90;;;;;;4972138;28;20274;-42
2023/06/30 05:16:48;;;;;;;13.70;10.18;;;19.10;99.90;;;;;;4969287;28;20250;-40
2023/06/30 05:19:14;;;;;;;13.38;10.95;;;19.10;99.90;;;;;;4972161;28;20192;-41
2023/06/30 05:21:40;;;;;;;14.85;10.45;;;19.10;99.90;;;;;;4969466;28;20723;-40
2023/06/30 05:24:06;;;;;;;15.73;11.15;;;19.10;99.90;;;;;;4985883;28;20212;-42
2023/06/30 05:26:31;;;;;;;16.02;11.32;;;19.10;99.90;;;;;;4972698;28;20210;-40
2023/06/30 05:28:58;;;;;;;13.32;10.10;;;19.10;99.90;;;;;;4970193;28;20206;-41
2023/06/30 05:31:24;;;;;;;15.07;10.50;;;19.10;99.90;;;;;;4989964;28;20195;-40
2023/06/30 05:33:50;;;;;;;12.60;9.90;;;19.00;99.90;;;;;;4973056;28;20183;-42
2023/06/30 05:36:16;;;;;;;13.82;10.55;;;18.80;99.90;;;;;;4969207;28;20203;-41
2023/06/30 05:38:43;;;;;;;15.10;11.35;;;18.80;99.90;;;;;;4974662;28;20235;-40
2023/06/30 05:41:11;;;;;;;11.65;9.70;;;18.80;99.90;;;;;;4977640;28;20191;-42
2023/06/30 05:43:37;;;;;;;13.80;9.43;;;18.80;99.90;;;;;;4983691;28;20180;-40
2023/06/30 05:46:03;;;;;;;12.85;9.93;;;18.80;99.90;;;;;;4982545;28;20211;-41
2023/06/30 05:48:29;;;;;;;14.05;11.05;;;18.80;99.90;;;;;;4980933;28;20200;-40
2023/06/30 05:50:55;;;;;;;14.73;11.38;;;18.80;99.90;;;;;;4974279;28;20179;-41
2023/06/30 05:53:22;;;;;;;17.48;11.63;;;18.80;99.90;;;;;;4988890;28;20214;-41
2023/06/30 05:55:48;;;;;;;12.10;10.48;;;18.80;99.90;;;;;;4982153;28;20207;-42
2023/06/30 05:58:13;;;;;;;17.52;11.25;;;18.80;99.90;;;;;;4987288;28;20212;-40
2023/06/30 06:00:39;;;;;;;15.48;10.85;;;18.90;99.90;;;;;;4977199;28;20208;-41
2023/06/30 06:03:05;;;;;;;17.92;11.32;;;18.90;99.90;;;;;;4979343;28;20187;-40
2023/06/30 06:05:31;;;;;;;13.90;11.32;;;19.00;99.90;;;;;;4977406;28;20246;-42
2023/06/30 06:07:57;;;;;;;14.15;10.82;;;19.10;99.90;;;;;;4977423;28;20204;-39
2023/06/30 06:10:22;;;;;;;13.52;11.57;;;19.10;99.90;;;;;;4990879;28;20181;-41
2023/06/30 06:12:51;;;;;;;14.13;11.00;;;19.10;99.90;;;;;;4982158;28;20184;-38
2023/06/30 06:15:17;;;;;;;13.30;10.13;;;19.10;99.90;;;;;;4988259;28;20268;-40
2023/06/30 06:17:42;;;;;;;13.90;10.85;;;19.10;99.90;;;;;;4993207;28;20207;-39
2023/06/30 06:20:09;;;;;;;13.85;11.10;;;19.10;99.90;;;;;;4984495;28;20235;-39
2023/06/30 06:22:35;;;;;;;15.23;11.25;;;19.10;99.90;;;;;;4990577;28;20199;-40
2023/06/30 06:25:00;;;;;;;14.18;11.68;;;19.00;99.90;;;;;;4977090;28;20207;-40
2023/06/30 06:27:28;;;;;;;18.70;12.77;;;18.90;99.90;;;;;;4985590;28;20208;-39
2023/06/30 06:29:54;;;;;;;17.48;12.80;;;18.90;99.90;;;;;;4984263;28;20175;-39
2023/06/30 06:32:20;;;;;;;15.57;12.13;;;18.90;99.90;;;;;;4985269;28;20180;-40
2023/06/30 06:34:46;;;;;;;17.25;12.25;;;18.80;99.90;;;;;;4973724;28;20196;-41
2023/06/30 06:37:12;;;;;;;14.48;11.43;;;18.90;99.90;;;;;;4983369;28;20223;-39
2023/06/30 06:39:38;;;;;;;17.40;11.80;;;18.90;99.90;;;;;;4971394;28;20185;-39
2023/06/30 06:42:04;;;;;;;14.10;12.20;;;18.90;99.90;;;;;;4984923;28;20198;-38
2023/06/30 06:44:30;;;;;;;17.35;12.60;;;18.90;99.90;;;;;;4973264;28;20239;-39
2023/06/30 06:47:44;;;;;;;17.60;12.23;;;18.90;99.90;;;;;;4972451;28;20204;-38
2023/06/30 06:50:09;;;;;;;15.48;11.23;;;18.90;99.90;;;;;;4901591;28;20190;-41
2023/06/30 06:52:35;;;;;;;13.95;11.48;;;18.90;99.90;;;;;;4992408;28;20195;-37
2023/06/30 06:55:02;;;;;;;15.85;12.18;;;18.90;99.90;;;;;;4969268;28;20266;-39
2023/06/30 06:57:28;;;;;;;13.40;10.88;;;19.00;99.90;;;;;;4992500;28;20211;-39
2023/06/30 06:59:53;;;;;;;16.75;12.30;;;19.10;99.90;;;;;;4976499;28;20192;-39
2023/06/30 07:02:19;;;;;;;17.25;12.60;;;19.20;99.90;;;;;;4976519;28;20263;-39
2023/06/30 07:04:45;;;;;;;17.83;12.02;;;19.20;99.90;;;;;;4990832;28;20191;-36
2023/06/30 07:07:11;;;;;;;17.95;12.88;;;19.40;99.90;;;;;;4969555;28;20200;-40
2023/06/30 07:09:37;;;;;;;15.50;12.10;;;19.50;99.90;;;;;;4984170;28;20279;-42
2023/06/30 07:12:03;;;;;;;16.85;12.13;;;19.60;99.90;;;;;;4969171;28;20198;-38
2023/06/30 07:14:29;;;;;;;16.42;12.18;;;19.70;99.90;;;;;;4974222;28;20184;-40
2023/06/30 07:16:55;;;;;;;17.08;11.60;;;19.80;99.90;;;;;;4993897;28;20211;-38
2023/06/30 07:19:20;;;;;;;16.42;11.95;;;19.90;99.90;;;;;;4978706;28;20196;-39
2023/06/30 07:21:46;;;;;;;16.73;12.50;;;20.00;99.90;;;;;;4982222;28;20184;-39
2023/06/30 07:24:12;;;;;;;15.43;11.63;;;20.00;99.90;;;;;;4966883;28;20189;-36
2023/06/30 07:26:38;;;;;;;18.60;12.23;;;20.00;99.90;;;;;;4979865;28;20239;-40
2023/06/30 07:29:04;;;;;;;17.70;11.85;;;20.00;99.90;;;;;;4984600;28;20192;-39
2023/06/30 07:31:31;;;;;;;20.33;12.68;;;20.10;99.90;;;;;;4984442;28;20246;-40
2023/06/30 07:33:57;;;;;;;16.42;11.77;;;20.00;99.90;;;;;;4976288;28;20180;-38
2023/06/30 07:36:23;;;;;;;16.33;11.98;;;20.10;99.90;;;;;;4975725;28;20188;-40
2023/06/30 07:38:48;;;;;;;19.85;13.60;;;20.10;99.90;;;;;;4991771;28;20707;-37
2023/06/30 07:41:14;;;;;;;17.92;13.05;;;20.10;99.90;;;;;;4974673;28;20226;-37
2023/06/30 07:43:40;;;;;;;18.65;13.23;;;20.10;99.90;;;;;;4975281;28;20238;-37
2023/06/30 07:46:06;;;;;;;19.15;13.25;;;20.10;99.90;;;;;;4975398;28;20269;-39
2023/06/30 07:48:32;;;;;;;18.92;12.95;;;20.10;99.90;;;;;;4983454;28;20208;-39
2023/06/30 07:50:57;;;;;;;17.83;12.50;;;20.10;99.90;;;;;;4972203;28;20173;-41
2023/06/30 07:53:23;;;;;;;16.88;12.20;;;20.10;99.90;;;;;;4988911;28;20188;-39
2023/06/30 07:55:49;;;;;;;15.98;12.07;;;20.00;99.90;;;;;;4973087;28;20224;-39
2023/06/30 07:58:15;;;;;;;16.40;12.52;;;20.00;99.90;;;;;;4979907;28;20235;-38
2023/06/30 08:00:40;;;;;;;15.85;12.32;;;20.10;99.90;;;;;;4974275;28;20192;-37
2023/06/30 08:03:06;;;;;;;18.33;13.07;;;20.10;99.90;;;;;;4982584;28;20195;-38
2023/06/30 08:05:32;;;;;;;17.98;12.80;;;20.30;99.90;;;;;;4973404;28;20296;-41
2023/06/30 08:07:58;;;;;;;18.05;13.85;;;20.30;99.90;;;;;;4987364;28;20212;-40
2023/06/30 08:10:24;;;;;;;18.35;12.73;;;20.30;99.90;;;;;;4970310;28;20188;-38
2023/06/30 08:12:50;;;;;;;17.67;12.93;;;20.30;99.90;;;;;;4972878;28;20188;-40
2023/06/30 08:15:15;;;;;;;16.42;13.63;;;20.20;99.90;;;;;;4969220;28;20195;-36
2023/06/30 08:17:41;;;;;;;18.95;13.38;;;20.10;99.90;;;;;;4982662;28;20203;-42
2023/06/30 08:20:08;;;;;;;18.45;14.07;;;20.10;99.90;;;;;;4983806;28;20190;-42
2023/06/30 08:22:34;;;;;;;17.55;12.98;;;20.10;99.90;;;;;;4988174;28;20270;-39
2023/06/30 08:25:00;;;;;;;17.52;13.73;;;20.00;99.90;;;;;;4985717;28;20283;-40
2023/06/30 08:27:26;;;;;;;16.27;13.05;;;20.10;99.90;;;;;;4986908;28;20254;-42
2023/06/30 08:29:52;;;;;;;17.90;13.60;;;20.00;99.90;;;;;;4971421;28;20184;-42
2023/06/30 08:32:18;;;;;;;15.98;13.45;;;20.10;99.90;;;;;;4984606;28;20215;-39
2023/06/30 08:34:43;;;;;;;16.60;13.40;;;20.10;99.90;;;;;;4990004;28;20274;-41
2023/06/30 08:37:09;;;;;;;16.67;13.15;;;20.20;99.90;;;;;;4973967;28;20272;-42
2023/06/30 08:39:35;;;;;;;19.05;14.52;;;20.20;99.90;;;;;;4973224;28;20188;-42
2023/06/30 08:42:05;;;;;;;16.88;13.13;;;20.30;99.90;;;;;;4981557;28;20184;-41
2023/06/30 08:44:31;;;;;;;16.38;12.57;;;20.40;99.90;;;;;;4990652;28;20746;-43
2023/06/30 08:47:00;;;;;;;14.63;12.30;;;20.40;99.90;;;;;;4977228;28;20755;-39
2023/06/30 08:49:31;;;;;;;13.73;11.52;;;20.50;99.90;;;;;;4977807;28;20299;-41
2023/06/30 08:51:57;;;;;;;13.02;11.25;;;20.50;99.90;;;;;;4971545;28;20177;-41
2023/06/30 08:54:24;;;;;;;12.75;11.13;;;20.60;99.90;;;;;;4982536;28;20238;-41
2023/06/30 08:56:50;;;;;;;13.70;11.05;;;20.60;99.90;;;;;;4970387;28;20231;-42
2023/06/30 08:59:18;;;;;;;13.07;10.73;;;20.60;99.90;;;;;;4980442;28;20223;-42
2023/06/30 09:01:45;;;;;;;13.68;11.00;;;20.70;99.90;;;;;;4982189;28;20188;-41
2023/06/30 09:04:14;;;;;;;11.77;9.90;;;20.60;99.90;;;;;;4974252;28;20211;-42
2023/06/30 09:06:48;;;;;;;11.60;10.27;;;20.60;99.90;;;;;;4973363;28;20273;-42
2023/06/30 09:09:22;;;;;;;11.95;10.05;;;20.60;99.90;;;;;;4972384;28;20193;-42
2023/06/30 09:11:50;;;;;;;13.75;10.00;;;20.60;99.90;;;;;;4988021;28;20177;-42
2023/06/30 09:14:17;;;;;;;13.57;11.32;;;20.70;99.90;;;;;;4969632;28;20641;-40
2023/06/30 09:16:43;;;;;;;12.70;10.55;;;20.70;99.90;;;;;;4969901;28;20233;-42
2023/06/30 09:19:09;;;;;;;13.35;11.68;;;20.80;99.90;;;;;;4980274;28;20330;-42
2023/06/30 09:21:36;;;;;;;12.15;10.75;;;20.80;99.90;;;;;;4971883;28;20195;-40
2023/06/30 09:24:02;;;;;;;11.90;10.55;;;20.90;99.90;;;;;;5003919;28;20191;-41
2023/06/30 09:26:30;;;;;;;12.40;9.43;;;20.90;99.90;;;;;;4973676;28;20279;-43
2023/06/30 09:28:57;;;;;;;11.35;9.57;;;20.90;99.90;;;;;;4986346;28;20227;-42
2023/06/30 09:31:29;;;;;;;10.68;9.57;;;21.00;99.90;;;;;;4969269;28;20184;-41
2023/06/30 09:34:07;;;;;;;11.27;9.95;;;21.00;99.90;;;;;;4973995;28;20190;-40
2023/06/30 09:36:34;;;;;;;11.55;10.00;;;21.10;99.90;;;;;;4994941;28;20246;-41
2023/06/30 09:39:00;;;;;;;11.82;9.93;;;21.00;99.90;;;;;;4989877;28;20192;-37
2023/06/30 09:41:26;;;;;;;10.82;9.55;;;20.90;99.90;;;;;;4982940;28;20192;-41
2023/06/30 09:43:59;;;;;;;13.98;9.57;;;20.90;99.90;;;;;;4970898;28;20195;-41
2023/06/30 09:46:28;;;;;;;10.48;9.38;;;20.90;99.90;;;;;;4967337;28;20215;-40
2023/06/30 09:48:55;;;;;;;11.55;10.25;;;20.80;99.90;;;;;;5016345;28;20183;-40
2023/06/30 09:51:22;;;;;;;12.13;9.88;;;20.80;99.90;;;;;;4973731;28;20180;-47
2023/06/30 09:53:53;;;;;;;11.25;9.90;;;20.70;99.90;;;;;;4968999;28;20186;-41
2023/06/30 09:56:23;;;;;;;11.50;10.30;;;20.70;99.90;;;;;;4978238;28;20183;-40
2023/06/30 09:58:58;;;;;;;11.40;9.63;;;20.60;99.90;;;;;;4990528;28;20246;-40
2023/06/30 10:01:24;;;;;;;10.50;9.38;;;20.60;99.90;;;;;;4980943;28;20250;-41
2023/06/30 10:03:52;;;;;;;12.25;9.80;;;20.50;99.90;;;;;;4970721;28;20180;-42
2023/06/30 10:06:23;;;;;;;10.25;8.88;;;20.60;99.90;;;;;;4967881;28;20207;-40
2023/06/30 10:08:56;;;;;;;9.70;8.65;;;20.60;99.90;;;;;;4987413;28;20196;-41
2023/06/30 10:11:23;;;;;;;11.15;9.32;;;20.60;99.90;;;;;;4973491;28;20200;-38
2023/06/30 10:13:58;;;;;;;10.05;8.55;;;20.50;99.90;;;;;;4971826;28;20208;-41
2023/06/30 10:16:29;;;;;;;9.18;8.13;;;20.50;99.90;;;;;;4978690;28;20220;-42
2023/06/30 10:18:58;;;;;;;11.82;9.45;;;20.50;99.90;;;;;;4975897;28;20188;-43
2023/06/30 10:21:26;;;;;;;12.63;8.90;;;20.50;99.90;;;;;;4972331;28;20195;-43
2023/06/30 10:23:53;;;;;;;10.13;8.98;;;20.50;99.90;;;;;;4987710;28;20188;-41
2023/06/30 10:26:22;;;;;;;9.00;8.07;;;20.50;99.90;;;;;;4986283;28;20208;-42
2023/06/30 10:28:49;;;;;;;10.85;9.57;;;20.50;99.90;;;;;;4981376;28;20204;-41
2023/06/30 10:31:18;;;;;;;10.85;8.52;;;20.50;99.90;;;;;;4978570;28;20184;-40
2023/06/30 10:33:45;;;;;;;12.02;9.07;;;20.50;99.90;;;;;;4976125;28;20215;-40
2023/06/30 10:36:13;;;;;;;12.10;9.80;;;20.60;99.90;;;;;;4990294;28;20280;-40
2023/06/30 10:38:43;;;;;;;12.15;9.45;;;20.70;99.90;;;;;;4989274;28;20224;-42
2023/06/30 10:41:19;;;;;;;9.75;8.75;;;20.80;99.90;;;;;;4969267;28;20208;-41
2023/06/30 10:44:10;;;;;;;11.65;9.40;;;20.90;99.90;;;;;;4981933;28;20223;-39
2023/06/30 10:46:53;;;;;;;9.95;8.88;;;21.00;99.90;;;;;;4989004;28;20212;-42
2023/06/30 10:49:31;;;;;;;10.48;8.18;;;21.10;99.90;;;;;;4975924;28;20183;-42
2023/06/30 10:52:00;;;;;;;9.80;8.77;;;21.20;99.90;;;;;;4982449;28;20188;-40
2023/06/30 10:54:36;;;;;;;10.60;8.43;;;21.40;99.90;;;;;;4988042;28;20208;-42
2023/06/30 10:57:18;;;;;;;9.40;8.40;;;21.50;99.90;;;;;;4984700;28;20734;-39
2023/06/30 11:00:03;;;;;;;8.60;7.57;;;21.80;99.90;;;;;;4965388;28;20253;-42
2023/06/30 11:02:35;;;;;;;9.52;8.48;;;22.10;99.90;;;;;;4980581;28;20271;-40
2023/06/30 11:05:32;;;;;;;10.00;8.88;;;22.20;99.90;;;;;;4989343;28;20188;-40
2023/06/30 11:08:11;;;;;;;9.35;8.35;;;22.10;99.90;;;;;;4991304;28;20271;-42
2023/06/30 11:10:46;;;;;;;9.48;8.48;;;22.10;99.90;;;;;;4976434;28;20211;-41
2023/06/30 11:13:13;;;;;;;9.85;8.80;;;22.20;99.90;;;;;;4985938;28;20187;-37
2023/06/30 11:15:42;;;;;;;10.98;9.27;;;22.30;99.90;;;;;;4974980;28;20768;-40
2023/06/30 11:18:18;;;;;;;10.57;8.85;;;22.30;99.90;;;;;;4974021;28;20695;-39
2023/06/30 11:21:06;;;;;;;11.20;9.10;;;22.40;99.90;;;;;;4982567;28;20180;-41
2023/06/30 11:23:37;;;;;;;11.57;9.95;;;22.40;99.90;;;;;;4980409;28;20194;-39
2023/06/30 11:26:18;;;;;;;10.88;9.38;;;22.50;99.90;;;;;;4991898;28;20254;-39
2023/06/30 11:28:50;;;;;;;11.65;9.80;;;22.50;99.90;;;;;;4975586;28;20207;-41
2023/06/30 11:31:17;;;;;;;10.88;9.43;;;22.60;99.90;;;;;;4973052;28;20272;-41
2023/06/30 11:33:43;;;;;;;12.50;9.88;;;22.60;99.90;;;;;;4989500;28;20177;-41
2023/06/30 11:36:16;;;;;;;13.40;10.55;;;22.60;99.90;;;;;;4974841;28;20188;-39
2023/06/30 11:38:46;;;;;;;12.45;10.18;;;22.60;99.90;;;;;;4974915;28;20218;-39
2023/06/30 11:41:18;;;;;;;11.40;10.20;;;22.60;99.90;;;;;;4975760;28;20190;-40
2023/06/30 11:43:53;;;;;;;12.23;10.73;;;22.50;99.90;;;;;;4975001;28;20222;-42
2023/06/30 11:46:20;;;;;;;12.45;10.85;;;22.60;99.90;;;;;;4975566;28;20215;-41
2023/06/30 11:48:47;;;;;;;12.32;10.30;;;22.60;99.90;;;;;;5015227;28;20203;-41
2023/06/30 11:51:14;;;;;;;12.57;11.05;;;22.60;99.90;;;;;;4999971;28;20184;-41
2023/06/30 11:53:46;;;;;;;12.90;11.25;;;22.70;99.90;;;;;;4987100;28;20191;-40
2023/06/30 11:56:11;;;;;;;13.10;11.10;;;22.80;99.90;;;;;;4967346;28;20238;-39
2023/06/30 11:58:42;;;;;;;12.15;10.38;;;22.70;99.90;;;;;;4982968;28;20262;-39
2023/06/30 12:01:08;;;;;;;13.70;11.75;;;22.80;99.90;;;;;;4981804;28;20183;-35
2023/06/30 12:03:34;;;;;;;13.15;11.63;;;22.80;99.90;;;;;;4987869;28;20188;-42
2023/06/30 12:06:07;;;;;;;12.93;11.18;;;22.80;99.90;;;;;;4987662;28;20212;-40
2023/06/30 12:08:37;;;;;;;14.13;12.02;;;22.60;99.90;;;;;;4987087;28;20200;-39
2023/06/30 12:11:07;;;;;;;14.40;11.98;;;22.50;99.90;;;;;;4988674;28;20214;-40
2023/06/30 12:13:32;;;;;;;17.65;12.95;;;22.40;99.90;;;;;;4972081;28;20195;-43
2023/06/30 12:16:02;;;;;;;16.58;12.25;;;22.30;99.90;;;;;;4960803;28;20192;-43
2023/06/30 12:18:39;;;;;;;18.48;15.35;;;22.20;99.90;;;;;;4987373;28;20685;-43
2023/06/30 12:21:10;;;;;;;18.15;14.85;;;22.20;99.90;;;;;;4973431;28;20188;-42
2023/06/30 12:23:40;;;;;;;19.75;15.35;;;22.20;99.90;;;;;;4969625;28;20273;-42
2023/06/30 12:26:06;;;;;;;18.80;15.63;;;22.20;99.90;;;;;;4996827;28;20212;-41
2023/06/30 12:28:32;;;;;;;17.38;14.90;;;22.20;99.90;;;;;;4978849;28;20207;-42
2023/06/30 12:30:58;;;;;;;16.70;14.52;;;22.30;99.90;;;;;;4975424;28;20187;-42
2023/06/30 12:33:23;;;;;;;18.73;15.07;;;22.30;99.90;;;;;;5000023;28;20192;-40
2023/06/30 12:35:50;;;;;;;19.75;16.58;;;22.40;99.90;;;;;;4987086;28;20185;-41
2023/06/30 12:38:18;;;;;;;19.75;16.45;;;22.50;99.90;;;;;;4972873;28;20315;-42
2023/06/30 12:40:44;;;;;;;16.70;14.88;;;22.50;99.90;;;;;;5003261;28;20224;-40